Time;durP1;ratioP1;P1;durP2;ratioP2;P2;SDS_P1;SDS_P2;PMS_P1;PMS_P2;Temp;Humidity;BMP_temperature;BMP_pressure;BME280_temperature;BME280_humidity;BME280_pressure;Samples;Min_cycle;Max_cycle;Signal;HPM_P1;HPM_P2
2022/03/15 00:19:19;;;;;;;11.85;4.78;;;;;;;3.82;90.25;102906.31;4880343;29;20091;-84
2022/03/15 00:21:45;;;;;;;10.40;4.15;;;;;;;3.76;90.56;102907.34;4933844;29;20059;-84
2022/03/15 00:24:11;;;;;;;7.60;4.22;;;;;;;3.69;90.15;102905.84;5005148;28;20046;-84
2022/03/15 00:26:37;;;;;;;11.65;4.53;;;;;;;3.62;89.96;102901.66;4994899;28;20506;-84
2022/03/15 00:29:02;;;;;;;9.27;4.10;;;;;;;3.55;89.71;102894.81;4994586;28;20029;-84
2022/03/15 00:31:28;;;;;;;12.15;4.40;;;;;;;3.50;90.13;102895.81;5065251;28;20140;-84
2022/03/15 00:50:59;;;;;;;6.88;3.90;;;;;;;3.06;90.37;102894.38;4992138;28;20049;-85
2022/03/15 00:53:30;;;;;;;7.70;4.28;;;;;;;2.99;90.27;102889.28;4979427;28;20030;-85
2022/03/15 00:55:59;;;;;;;14.35;4.53;;;;;;;2.95;90.70;102892.88;5060132;28;20037;-84
2022/03/15 00:58:25;;;;;;;8.20;4.40;;;;;;;2.92;90.98;102898.22;5058298;28;20032;-85
2022/03/15 01:01:12;;;;;;;10.50;4.72;;;;;;;2.86;90.70;102895.75;5076177;28;20381;-85
2022/03/15 01:03:47;;;;;;;8.00;3.85;;;;;;;2.82;90.78;102891.47;5076602;28;20036;-84
2022/03/15 01:06:12;;;;;;;9.80;4.20;;;;;;;2.79;90.74;102892.44;5076373;28;20150;-85
2022/03/15 01:08:38;;;;;;;6.22;3.60;;;;;;;2.77;90.84;102890.72;5076036;28;20052;-84
2022/03/15 01:11:05;;;;;;;8.48;3.72;;;;;;;2.75;90.88;102888.13;5076199;28;20047;-84
2022/03/15 01:13:31;;;;;;;7.93;4.15;;;;;;;2.74;91.02;102889.03;5075982;28;20547;-84
2022/03/15 01:15:57;;;;;;;13.75;4.35;;;;;;;2.72;91.28;102880.31;5075774;28;20112;-85
2022/03/15 01:18:22;;;;;;;10.75;4.40;;;;;;;2.72;92.21;102882.97;5076372;28;20028;-85
2022/03/15 01:20:50;;;;;;;9.90;4.22;;;;;;;2.69;92.49;102877.78;5075968;28;20404;-84
2022/03/15 01:23:18;;;;;;;10.23;3.97;;;;;;;2.68;92.43;102872.56;5075304;28;20031;-85
2022/03/15 01:25:53;;;;;;;7.70;4.30;;;;;;;2.68;92.66;102876.03;5075768;28;20037;-84
2022/03/15 01:28:19;;;;;;;10.07;3.92;;;;;;;2.65;92.63;102866.47;5075758;28;20039;-85
2022/03/15 01:30:45;;;;;;;9.38;3.97;;;;;;;2.64;92.45;102866.50;5057790;28;20032;-84
2022/03/15 01:33:10;;;;;;;10.50;4.15;;;;;;;2.63;92.21;102859.53;5075320;28;20193;-84
2022/03/15 01:35:38;;;;;;;8.57;4.55;;;;;;;2.63;92.67;102851.66;5075617;28;20444;-85
2022/03/15 01:38:04;;;;;;;15.30;5.88;;;;;;;2.62;93.07;102853.38;5075313;28;20112;-84
2022/03/15 01:40:30;;;;;;;9.18;4.50;;;;;;;2.61;93.50;102851.69;5075390;28;20040;-85
2022/03/15 01:42:55;;;;;;;7.85;4.70;;;;;;;2.61;93.41;102848.19;5075767;28;20090;-85
2022/03/15 01:45:30;;;;;;;8.25;4.03;;;;;;;2.60;93.43;102849.94;5057713;28;20127;-84
2022/03/15 01:47:56;;;;;;;9.15;4.50;;;;;;;2.60;93.49;102852.59;5057836;28;20033;-84
2022/03/15 01:50:22;;;;;;;9.90;4.10;;;;;;;2.60;93.64;102855.22;5075046;28;20518;-84
2022/03/15 01:52:48;;;;;;;6.50;4.40;;;;;;;2.61;94.03;102856.94;5075271;28;20086;-84
2022/03/15 01:55:17;;;;;;;14.38;4.50;;;;;;;2.62;94.43;102853.38;5075373;28;20056;-84
2022/03/15 02:05:01;;;;;;;9.90;4.25;;;;;;;2.69;95.29;102837.47;5074502;28;20044;-84
2022/03/15 02:07:24;;;;;;;;;;;;;;;;;;;;;
2022/03/15 02:13:12;;;;;;;9.55;4.90;;;;;;;2.75;95.73;102830.31;5075332;28;20495;-84
2022/03/15 02:15:38;;;;;;;13.38;4.72;;;;;;;2.75;95.83;102837.34;5057154;28;20025;-84
2022/03/15 02:18:07;;;;;;;10.77;5.07;;;;;;;2.75;96.27;102829.44;5075260;28;20243;-84
2022/03/15 02:20:40;;;;;;;11.73;4.95;;;;;;;2.74;96.13;102825.94;5056504;28;20442;-84
2022/03/15 02:23:19;;;;;;;;;;;;;;;;;;;;;
2022/03/15 02:29:13;;;;;;;11.03;5.10;;;;;;;2.71;96.72;102815.50;5032959;28;20067;-84
2022/03/15 02:31:39;;;;;;;11.82;5.18;;;;;;;2.71;96.81;102815.50;5076537;28;20016;-85
2022/03/15 02:34:13;;;;;;;10.82;4.85;;;;;;;2.71;96.95;102818.13;5075941;28;20021;-84
2022/03/15 02:36:39;;;;;;;10.35;5.38;;;;;;;2.70;97.14;102819.03;5076878;28;20428;-85
2022/03/15 02:46:39;;;;;;;8.25;5.07;;;;;;;2.65;97.44;102792.84;5009990;28;20055;-84
2022/03/15 02:49:06;;;;;;;7.80;4.97;;;;;;;2.64;97.70;102795.53;5056808;28;20069;-84
2022/03/15 02:51:35;;;;;;;11.13;4.43;;;;;;;2.65;97.58;102797.25;5056124;28;20057;-85
2022/03/15 02:54:04;;;;;;;11.63;5.15;;;;;;;2.64;97.55;102793.78;5056571;28;20084;-84
2022/03/15 03:06:49;;;;;;;14.50;5.60;;;;;;;2.62;98.19;102795.56;5022720;28;20065;-85
2022/03/15 03:09:16;;;;;;;11.98;5.50;;;;;;;2.64;98.64;102798.16;5054826;28;20270;-85
2022/03/15 03:11:42;;;;;;;10.43;5.78;;;;;;;2.64;98.87;102796.41;5054269;28;20072;-85
2022/03/15 03:20:21;;;;;;;11.07;5.20;;;;;;;2.72;99.30;102785.69;5054100;28;20044;-85
2022/03/15 03:22:54;;;;;;;13.48;5.63;;;;;;;2.74;99.27;102786.50;5053758;28;20469;-85
2022/03/15 03:25:20;;;;;;;11.88;5.47;;;;;;;2.79;99.43;102787.25;5054292;28;20035;-85
2022/03/15 03:27:49;;;;;;;11.40;5.30;;;;;;;2.81;99.56;102788.06;5053272;28;20437;-84
2022/03/15 03:30:18;;;;;;;11.82;5.63;;;;;;;2.81;99.72;102789.84;5053251;28;20477;-85
2022/03/15 03:32:49;;;;;;;10.60;5.20;;;;;;;2.82;99.45;102783.66;5035594;28;20033;-85
2022/03/15 03:35:15;;;;;;;14.20;5.70;;;;;;;2.84;99.33;102787.13;5053577;28;20087;-85
2022/03/15 03:37:46;;;;;;;12.27;6.07;;;;;;;2.87;99.40;102783.56;5053538;28;20385;-85
2022/03/15 03:40:14;;;;;;;15.43;6.05;;;;;;;2.88;99.59;102783.53;5053705;28;20075;-85
2022/03/15 03:42:42;;;;;;;12.35;5.90;;;;;;;2.88;99.56;102775.63;5053432;28;20118;-85
2022/03/15 03:45:13;;;;;;;14.88;6.10;;;;;;;2.89;99.83;102774.72;5059088;28;20137;-85
2022/03/15 03:47:49;;;;;;;;;;;;;;;;;;;;;
2022/03/15 03:57:45;;;;;;;12.75;5.43;;;;;;;2.93;100.00;102780.75;5031077;28;20060;-85
2022/03/15 04:04:06;;;;;;;12.77;6.03;;;;;;;2.95;100.00;102782.44;5031267;28;20147;-85
2022/03/15 04:13:34;;;;;;;;;;;;;;;;;;;;;
2022/03/15 04:23:01;;;;;;;18.02;7.53;;;;;;;3.04;100.00;102768.16;4934251;29;20087;-85
2022/03/15 04:32:45;;;;;;;18.00;7.65;;;;;;;3.06;100.00;102771.63;4882113;29;20073;-84
2022/03/15 04:49:42;;;;;;;15.93;8.18;;;;;;;3.12;100.00;102760.94;4894460;29;20062;-85
2022/03/15 04:52:11;;;;;;;16.58;8.07;;;;;;;3.12;100.00;102760.06;4944470;28;20059;-85
2022/03/15 04:54:39;;;;;;;14.65;8.30;;;;;;;3.13;100.00;102757.38;4994700;28;20093;-84
2022/03/15 04:57:14;;;;;;;21.80;9.50;;;;;;;3.15;100.00;102752.06;5074017;28;20040;-84
2022/03/15 05:06:40;;;;;;;14.75;8.15;;;;;;;3.20;100.00;102734.41;5015042;28;20044;-85
2022/03/15 05:09:09;;;;;;;18.58;9.13;;;;;;;3.21;100.00;102735.25;5013990;28;20490;-84
2022/03/15 05:22:21;;;;;;;21.35;9.40;;;;;;;3.29;100.00;102726.22;5014209;28;20076;-86
2022/03/15 05:28:56;;;;;;;18.65;9.50;;;;;;;3.31;100.00;102720.91;5014110;28;20056;-85
2022/03/15 05:41:26;;;;;;;21.75;10.35;;;;;;;3.34;100.00;102705.03;5075998;28;20035;-85
2022/03/15 05:51:32;;;;;;;21.20;11.32;;;;;;;3.34;100.00;102702.41;4981968;28;20467;-85
2022/03/15 05:54:04;;;;;;;19.27;11.43;;;;;;;3.33;100.00;102703.34;5037213;28;20041;-85
2022/03/15 05:56:34;;;;;;;27.80;11.85;;;;;;;3.33;100.00;102696.28;5055211;28;20458;-85
2022/03/15 05:59:02;;;;;;;21.73;12.23;;;;;;;3.34;100.00;102695.41;5055142;28;20091;-85
2022/03/15 06:01:36;;;;;;;25.42;13.65;;;;;;;3.37;100.00;102693.56;5055525;28;20025;-85
2022/03/15 06:04:07;;;;;;;33.22;15.38;;;;;;;3.39;100.00;102699.63;5055579;28;20125;-85
2022/03/15 06:06:38;;;;;;;27.20;14.33;;;;;;;3.41;100.00;102693.41;5054832;28;20029;-85
2022/03/15 06:09:12;;;;;;;43.15;18.02;;;;;;;3.44;100.00;102695.97;5055591;28;20317;-85
2022/03/15 06:11:41;;;;;;;34.90;18.02;;;;;;;3.47;100.00;102687.97;5054930;28;20026;-85
2022/03/15 06:14:21;;;;;;;45.33;18.90;;;;;;;3.50;100.00;102687.00;5054650;28;20033;-85
2022/03/15 06:34:37;;;;;;;38.60;20.15;;;;;;;3.64;100.00;102697.09;4897325;29;20124;-85
2022/03/15 06:43:58;;;;;;;40.65;21.92;;;;;;;3.79;100.00;102688.72;4984868;28;20084;-84
2022/03/15 06:46:26;;;;;;;46.22;21.48;;;;;;;3.83;100.00;102685.06;5038253;28;20494;-85
2022/03/15 06:58:37;;;;;;;47.85;25.83;;;;;;;4.09;100.00;102688.63;5074339;28;20062;-86
2022/03/15 07:01:06;;;;;;;46.95;24.63;;;;;;;4.13;100.00;102678.84;5056030;28;20036;-85
2022/03/15 07:03:33;;;;;;;48.90;23.30;;;;;;;4.17;100.00;102678.69;5073653;28;20086;-85
2022/03/15 07:05:59;;;;;;;51.85;24.38;;;;;;;4.24;100.00;102676.72;5073601;28;20055;-85
2022/03/15 07:08:25;;;;;;;45.75;23.05;;;;;;;4.29;100.00;102673.91;5073950;28;20511;-85
2022/03/15 07:10:51;;;;;;;43.90;23.83;;;;;;;4.35;100.00;102671.06;5075395;28;20437;-85
2022/03/15 07:23:44;;;;;;;;;;;;;;;;;;;;;
2022/03/15 07:26:10;;;;;;;44.05;22.30;;;;;;;4.81;100.00;102668.50;5073574;28;20043;-85
2022/03/15 07:28:36;;;;;;;42.70;23.05;;;;;;;4.89;100.00;102663.84;5073738;28;20115;-85
2022/03/15 07:31:01;;;;;;;40.92;22.25;;;;;;;4.97;100.00;102663.53;5073472;28;20024;-86
2022/03/15 07:33:27;;;;;;;46.08;23.00;;;;;;;5.04;100.00;102665.03;5073958;28;20063;-86
2022/03/15 07:36:00;;;;;;;45.28;22.05;;;;;;;5.13;100.00;102667.31;5073541;28;20105;-84
2022/03/15 07:44:34;;;;;;;40.72;21.83;;;;;;;5.38;99.14;102679.56;5011852;28;20041;-85
2022/03/15 08:03:01;;;;;;;35.03;21.42;;;;;;;6.08;95.64;102662.66;4973264;28;20038;-84
2022/03/15 08:05:36;;;;;;;40.13;20.70;;;;;;;6.17;95.45;102656.13;4972324;28;20475;-84
2022/03/15 08:08:07;;;;;;;49.08;26.70;;;;;;;6.25;94.72;102663.72;4988816;28;20058;-84
2022/03/15 08:10:55;;;;;;;40.38;20.88;;;;;;;6.34;93.95;102668.59;5011392;28;20032;-84
2022/03/15 08:43:06;;;;;;;28.15;17.10;;;;;;;8.01;85.66;102674.06;5053162;28;20524;-85
2022/03/15 08:45:38;;;;;;;32.00;17.25;;;;;;;8.35;83.96;102673.19;5053529;28;20033;-85
2022/03/15 08:48:48;;;;;;;;;;;;;;;;;;;;;
2022/03/15 08:51:23;;;;;;;37.40;17.23;;;;;;;9.12;79.38;102665.59;4996363;28;20059;-85
2022/03/15 08:54:43;;;;;;;26.60;15.40;;;;;;;9.65;78.20;102667.00;5059083;28;20045;-85
2022/03/15 09:03:50;;;;;;;24.95;14.73;;;;;;;11.48;68.45;102656.78;4934187;28;20043;-86
2022/03/15 09:19:31;;;;;;;20.25;13.13;;;;;;;17.05;46.72;102650.56;4901260;29;20504;-85
2022/03/15 09:28:53;;;;;;;21.88;12.27;;;;;;;17.89;44.93;102642.00;5014280;28;20073;-86
2022/03/15 09:31:28;;;;;;;16.30;10.90;;;;;;;17.20;44.38;102645.63;4997624;28;20026;-86
2022/03/15 09:33:54;;;;;;;20.42;11.05;;;;;;;17.02;44.14;102642.78;5076108;28;20036;-86
2022/03/15 09:42:48;;;;;;;21.63;11.68;;;;;;;15.08;49.16;102619.88;5014873;28;20073;-86
2022/03/15 09:45:21;;;;;;;22.30;9.50;;;;;;;15.51;48.60;102627.88;5077116;28;20180;-85
2022/03/15 09:47:51;;;;;;;14.65;8.63;;;;;;;15.67;46.95;102618.53;5076182;28;20031;-85
2022/03/15 09:50:21;;;;;;;16.75;9.55;;;;;;;16.63;45.13;102613.03;5075448;28;20039;-85
2022/03/15 09:52:53;;;;;;;19.58;9.73;;;;;;;16.99;44.16;102608.06;5075504;28;20549;-85
2022/03/15 09:55:20;;;;;;;17.67;9.65;;;;;;;17.56;43.08;102613.66;5075137;28;20127;-85
2022/03/15 09:57:49;;;;;;;16.67;9.10;;;;;;;17.97;41.12;102609.81;5075499;28;20040;-85
2022/03/15 10:00:16;;;;;;;15.80;9.25;;;;;;;18.63;40.02;102607.16;5075606;28;20085;-85
2022/03/15 10:02:46;;;;;;;18.08;9.73;;;;;;;18.85;39.41;102592.44;5075953;28;20036;-85
2022/03/15 10:05:13;;;;;;;15.65;9.02;;;;;;;18.95;38.16;102595.09;5075041;28;20036;-85
2022/03/15 10:07:39;;;;;;;18.15;9.18;;;;;;;19.65;37.22;102586.31;5075985;28;20036;-85
2022/03/15 10:10:24;;;;;;;15.10;8.70;;;;;;;19.94;36.93;102574.38;5075670;28;20037;-85
2022/03/15 10:12:57;;;;;;;15.50;8.38;;;;;;;20.26;36.83;102579.13;5057529;28;20033;-86
2022/03/15 10:15:22;;;;;;;17.83;8.70;;;;;;;20.62;36.53;102578.94;5075884;28;20461;-85
2022/03/15 10:17:55;;;;;;;21.00;8.40;;;;;;;21.33;33.96;102574.03;5075081;28;20036;-85
2022/03/15 10:20:28;;;;;;;13.63;8.20;;;;;;;21.30;33.56;102569.81;5075216;28;20103;-84
2022/03/15 10:23:02;;;;;;;14.63;8.20;;;;;;;20.58;34.45;102564.91;5088670;28;20172;-86
2022/03/15 10:25:30;;;;;;;13.98;6.75;;;;;;;20.12;34.12;102560.81;5094335;28;20028;-86
2022/03/15 10:28:01;;;;;;;13.55;7.35;;;;;;;20.25;34.98;102553.13;5094863;28;20024;-85
2022/03/15 10:30:29;;;;;;;12.85;5.40;;;;;;;20.11;34.21;102559.09;5095180;28;20456;-85
2022/03/15 10:32:56;;;;;;;10.23;5.18;;;;;;;20.30;33.44;102558.88;5094909;28;20028;-84
2022/03/15 10:35:35;;;;;;;12.50;5.70;;;;;;;20.33;33.44;102555.00;5094522;28;20129;-85
2022/03/15 10:38:02;;;;;;;9.18;5.88;;;;;;;20.25;33.71;102548.53;5077457;28;20043;-86
2022/03/15 10:40:39;;;;;;;12.77;6.22;;;;;;;20.32;34.07;102553.28;5059924;28;20028;-86
2022/03/15 10:43:10;;;;;;;12.23;6.47;;;;;;;20.74;34.12;102552.50;5094914;28;20031;-86
2022/03/15 10:45:40;;;;;;;23.15;6.25;;;;;;;20.35;34.06;102550.31;5095092;28;20114;-85
2022/03/15 10:48:42;;;;;;;12.80;6.05;;;;;;;20.39;33.62;102551.66;5094665;28;20020;-84
2022/03/15 10:51:14;;;;;;;11.98;6.50;;;;;;;20.08;33.58;102539.53;5091309;28;20044;-86
2022/03/15 10:53:48;;;;;;;14.15;6.55;;;;;;;20.29;35.09;102534.69;5094856;28;20464;-86
2022/03/15 10:59:33;;;;;;;13.55;6.10;;;;;;;20.27;33.03;102529.47;5072162;28;20051;-84
2022/03/15 11:02:00;;;;;;;14.82;6.28;;;;;;;20.48;34.08;102531.78;5076817;28;20118;-85
2022/03/15 11:04:26;;;;;;;10.73;5.63;;;;;;;20.30;32.66;102523.72;5076640;28;20028;-85
2022/03/15 11:06:55;;;;;;;11.05;5.75;;;;;;;20.46;33.26;102519.41;5094374;28;20365;-85
2022/03/15 11:09:29;;;;;;;14.05;5.57;;;;;;;20.38;33.42;102512.13;5094231;28;20024;-85
2022/03/15 11:12:04;;;;;;;12.02;6.03;;;;;;;19.89;33.70;102512.75;5094205;28;20085;-85
2022/03/15 11:14:40;;;;;;;13.65;5.60;;;;;;;20.23;33.82;102503.81;5094430;28;20619;-85
2022/03/15 11:17:15;;;;;;;10.60;5.25;;;;;;;19.77;34.66;102506.72;5094857;28;20364;-84
2022/03/15 11:19:47;;;;;;;10.45;5.10;;;;;;;20.13;33.20;102508.47;5094094;28;20031;-85
2022/03/15 11:22:23;;;;;;;7.70;4.47;;;;;;;19.95;33.50;102497.75;5094094;28;20036;-85
2022/03/15 11:25:02;;;;;;;11.27;4.90;;;;;;;20.15;31.94;102501.03;5076698;28;20028;-85
2022/03/15 11:27:31;;;;;;;10.45;4.97;;;;;;;20.23;32.99;102499.22;5076487;28;20448;-84
2022/03/15 11:30:02;;;;;;;12.50;4.68;;;;;;;19.58;33.62;102490.75;5093918;28;20144;-84
2022/03/15 11:32:31;;;;;;;11.23;5.45;;;;;;;19.72;33.95;102488.31;5094259;28;20028;-84
2022/03/15 11:34:57;;;;;;;12.02;5.18;;;;;;;19.59;33.56;102478.97;5093585;28;20529;-83
2022/03/15 11:37:22;;;;;;;8.20;4.45;;;;;;;19.92;33.63;102477.31;5074804;28;20384;-83
2022/03/15 11:39:49;;;;;;;9.95;4.03;;;;;;;19.80;32.78;102475.91;5094079;28;20028;-85
2022/03/15 11:42:16;;;;;;;9.27;4.20;;;;;;;19.84;33.02;102479.94;5093705;28;20465;-84
2022/03/15 11:45:07;;;;;;;10.23;4.22;;;;;;;19.42;32.99;102461.78;5093574;28;20090;-85
2022/03/15 11:47:51;;;;;;;9.98;4.10;;;;;;;19.50;33.58;102464.56;5093346;28;20464;-83
2022/03/15 11:50:27;;;;;;;8.77;4.30;;;;;;;19.61;34.06;102458.03;5093754;28;20483;-84
2022/03/15 11:53:06;;;;;;;5.82;3.40;;;;;;;19.46;32.41;102455.91;5093944;28;20491;-84
2022/03/15 11:55:49;;;;;;;9.73;4.15;;;;;;;19.47;34.22;102451.38;5075489;28;20079;-84
2022/03/15 11:58:27;;;;;;;6.63;3.38;;;;;;;19.82;33.22;102452.28;5094314;28;20165;-83
2022/03/15 12:00:54;;;;;;;10.40;3.88;;;;;;;19.99;31.58;102443.25;5094138;28;20039;-84
2022/03/15 12:03:23;;;;;;;8.02;3.72;;;;;;;20.11;32.67;102440.22;5094318;28;20039;-82
2022/03/15 12:05:52;;;;;;;5.72;3.30;;;;;;;20.06;33.05;102443.41;5094501;28;20118;-84
2022/03/15 12:08:23;;;;;;;7.80;3.55;;;;;;;19.93;33.37;102435.78;5093991;28;20110;-84
2022/03/15 12:11:01;;;;;;;6.78;3.33;;;;;;;20.25;31.63;102442.31;5093923;28;20024;-84
2022/03/15 12:13:33;;;;;;;7.55;3.30;;;;;;;20.20;30.91;102431.16;5093551;28;20055;-83
2022/03/15 12:16:17;;;;;;;6.07;2.65;;;;;;;20.06;30.83;102430.78;5077029;28;20356;-84
2022/03/15 12:18:45;;;;;;;9.50;3.08;;;;;;;20.57;31.12;102428.03;5093352;28;20051;-84
2022/03/15 12:21:11;;;;;;;7.20;2.50;;;;;;;21.03;29.89;102421.31;5093696;28;20111;-82
2022/03/15 12:23:43;;;;;;;8.30;3.00;;;;;;;21.53;30.43;102419.38;5093516;28;20035;-82
2022/03/15 12:26:26;;;;;;;6.40;3.00;;;;;;;21.97;30.45;102413.47;5093844;28;20168;-83
2022/03/15 12:28:56;;;;;;;9.90;3.10;;;;;;;22.10;29.34;102412.91;5075951;28;20048;-83
2022/03/15 12:31:32;;;;;;;8.77;2.93;;;;;;;21.38;28.53;102414.66;5075187;28;20483;-82
2022/03/15 12:34:13;;;;;;;9.13;2.80;;;;;;;21.43;29.53;102420.38;5093225;28;20024;-83
2022/03/15 12:36:45;;;;;;;5.73;3.03;;;;;;;20.70;29.10;102422.13;5093045;28;20461;-83
2022/03/15 12:39:12;;;;;;;7.30;3.10;;;;;;;20.80;29.24;102411.16;5092834;28;20035;-82
2022/03/15 12:41:39;;;;;;;5.95;2.60;;;;;;;20.98;29.73;102420.97;5092747;28;20452;-83
2022/03/15 12:44:06;;;;;;;6.07;2.50;;;;;;;21.47;28.84;102420.91;5093612;28;20108;-83
2022/03/15 12:46:31;;;;;;;7.68;3.20;;;;;;;21.72;28.83;102418.13;5093163;28;20036;-82
2022/03/15 12:49:08;;;;;;;6.22;3.28;;;;;;;20.60;30.08;102419.59;5096721;28;20028;-82
2022/03/15 12:51:42;;;;;;;9.05;3.30;;;;;;;22.17;28.53;102412.00;5097075;28;20032;-82
2022/03/15 12:54:10;;;;;;;8.65;3.10;;;;;;;21.77;29.44;102424.72;5096767;28;20055;-83
2022/03/15 12:56:46;;;;;;;15.35;3.72;;;;;;;23.27;26.71;102417.31;5096789;28;20077;-83
2022/03/15 12:59:18;;;;;;;8.15;3.50;;;;;;;22.69;27.32;102417.78;5096689;28;20038;-82
2022/03/15 13:01:47;;;;;;;9.38;3.75;;;;;;;22.50;27.56;102419.97;5096673;28;20105;-82
2022/03/15 13:04:13;;;;;;;9.82;3.92;;;;;;;22.09;29.10;102420.16;5096733;28;20035;-82
2022/03/15 13:06:45;;;;;;;6.80;3.60;;;;;;;22.82;27.18;102422.59;5096521;28;20036;-81
2022/03/15 13:09:11;;;;;;;6.97;3.63;;;;;;;23.14;26.74;102420.66;5096380;28;20032;-81
2022/03/15 13:11:45;;;;;;;8.93;3.70;;;;;;;23.62;26.02;102417.59;5096299;28;20090;-81
2022/03/15 13:14:11;;;;;;;8.52;3.58;;;;;;;21.79;28.40;102419.13;5096290;28;20064;-82
2022/03/15 13:16:44;;;;;;;9.20;3.90;;;;;;;20.17;29.87;102417.94;5096661;28;20067;-81
2022/03/15 13:19:10;;;;;;;11.07;4.50;;;;;;;18.99;33.15;102415.81;5097922;28;20039;-81
2022/03/15 13:21:38;;;;;;;8.57;3.35;;;;;;;18.66;33.49;102421.72;5096175;28;20464;-82
2022/03/15 13:24:10;;;;;;;9.23;4.20;;;;;;;18.00;34.69;102420.16;5096438;28;20024;-82
2022/03/15 13:26:39;;;;;;;9.10;4.32;;;;;;;18.33;34.37;102421.38;5096901;28;20055;-81
2022/03/15 13:29:08;;;;;;;6.93;3.80;;;;;;;19.48;31.88;102420.66;5096239;28;20024;-81
2022/03/15 13:31:35;;;;;;;7.03;3.80;;;;;;;21.07;30.24;102425.38;5096147;28;20135;-81
2022/03/15 13:34:02;;;;;;;10.25;3.95;;;;;;;21.45;29.54;102421.09;5096418;28;20032;-81
2022/03/15 13:36:34;;;;;;;8.48;4.63;;;;;;;22.04;29.95;102411.75;5096686;28;20028;-81
2022/03/15 13:39:10;;;;;;;10.90;4.15;;;;;;;21.78;30.04;102417.44;5095771;28;20107;-81
2022/03/15 13:41:48;;;;;;;8.50;4.72;;;;;;;21.61;30.41;102413.94;5077836;28;20028;-80
2022/03/15 13:44:16;;;;;;;8.25;4.03;;;;;;;22.39;28.57;102405.97;5096687;28;20374;-82
2022/03/15 13:46:43;;;;;;;6.85;4.20;;;;;;;23.21;27.07;102389.03;5096619;28;20028;-81
2022/03/15 13:49:20;;;;;;;12.40;4.70;;;;;;;23.13;27.42;102378.25;5095698;28;20055;-84
2022/03/15 13:51:47;;;;;;;11.45;4.88;;;;;;;23.36;27.85;102370.88;5095896;28;20036;-82
2022/03/15 13:54:16;;;;;;;8.40;3.97;;;;;;;23.67;27.01;102374.41;5095360;28;20109;-81
2022/03/15 13:56:47;;;;;;;10.18;4.30;;;;;;;23.04;27.13;102367.44;5095134;28;20119;-80
2022/03/15 13:59:15;;;;;;;10.40;3.90;;;;;;;23.18;27.49;102365.78;5094886;28;20457;-80
2022/03/15 14:01:48;;;;;;;9.20;4.05;;;;;;;23.11;26.52;102373.03;5095508;28;20111;-80
2022/03/15 14:04:16;;;;;;;10.27;4.53;;;;;;;22.61;27.03;102369.03;5077330;28;20024;-80
2022/03/15 14:06:44;;;;;;;8.95;4.28;;;;;;;21.60;28.75;102363.50;5077214;28;20387;-80
2022/03/15 14:09:24;;;;;;;7.70;4.30;;;;;;;21.89;29.76;102362.03;5095567;28;20128;-80
2022/03/15 14:11:49;;;;;;;13.13;5.10;;;;;;;20.95;30.35;102355.34;5094991;28;20039;-80
2022/03/15 14:14:22;;;;;;;8.35;4.82;;;;;;;21.58;29.95;102355.56;5095278;28;20036;-81
2022/03/15 14:16:51;;;;;;;10.27;5.38;;;;;;;20.96;31.21;102358.94;5096238;28;20059;-81
2022/03/15 14:19:21;;;;;;;17.50;5.00;;;;;;;20.17;31.77;102363.91;5095292;28;20031;-81
2022/03/15 14:21:50;;;;;;;9.57;5.80;;;;;;;18.92;33.88;102363.50;5095328;28;20035;-80
2022/03/15 14:24:21;;;;;;;14.95;5.40;;;;;;;17.98;35.93;102366.44;5095419;28;20028;-79
2022/03/15 14:26:49;;;;;;;11.55;5.53;;;;;;;17.24;38.26;102370.00;5095560;28;20066;-80
2022/03/15 14:29:19;;;;;;;12.07;5.03;;;;;;;16.68;40.44;102366.25;5096082;28;20356;-80
2022/03/15 14:31:56;;;;;;;11.75;4.90;;;;;;;16.14;42.55;102369.31;5095056;28;20122;-80
2022/03/15 14:34:21;;;;;;;9.68;4.63;;;;;;;15.64;44.39;102358.56;5095507;28;20497;-80
2022/03/15 14:36:47;;;;;;;6.30;3.80;;;;;;;15.55;44.72;102354.00;5060902;28;20027;-82
2022/03/15 14:39:19;;;;;;;12.15;4.80;;;;;;;15.32;45.79;102356.88;5094885;28;20032;-80
2022/03/15 14:41:46;;;;;;;10.38;4.88;;;;;;;15.20;46.81;102355.22;5094989;28;20468;-79
2022/03/15 14:44:16;;;;;;;10.95;4.88;;;;;;;15.01;47.20;102362.19;5095242;28;20032;-79
2022/03/15 14:46:44;;;;;;;10.52;4.82;;;;;;;14.88;48.23;102354.31;5095095;28;20169;-79
2022/03/15 14:49:11;;;;;;;13.43;4.80;;;;;;;14.88;47.48;102356.16;5095224;28;20028;-80
2022/03/15 14:51:38;;;;;;;9.57;4.50;;;;;;;14.79;48.22;102350.63;5095225;28;20024;-80
2022/03/15 14:54:05;;;;;;;7.93;4.40;;;;;;;14.72;49.43;102346.75;5094315;28;20119;-81
2022/03/15 14:56:32;;;;;;;7.13;4.00;;;;;;;14.74;49.11;102343.94;5094950;28;20055;-81
2022/03/15 14:58:59;;;;;;;4.55;3.47;;;;;;;14.55;50.04;102349.97;5095061;28;20039;-80
2022/03/15 15:01:25;;;;;;;9.10;4.00;;;;;;;14.30;51.59;102349.31;5094515;28;20024;-80
2022/03/15 15:03:51;;;;;;;8.63;4.20;;;;;;;14.31;51.61;102351.03;5076211;28;20032;-80
2022/03/15 15:06:17;;;;;;;9.35;3.90;;;;;;;15.20;49.85;102347.19;5094521;28;20135;-81
2022/03/15 15:08:46;;;;;;;7.72;4.70;;;;;;;16.45;46.67;102358.47;5093973;28;20071;-81
2022/03/15 15:11:11;;;;;;;5.07;3.67;;;;;;;17.50;43.76;102355.91;5093883;28;20124;-80
2022/03/15 15:13:38;;;;;;;7.38;4.25;;;;;;;17.57;43.61;102354.31;5093861;28;20123;-80
2022/03/15 15:16:03;;;;;;;7.35;4.30;;;;;;;17.63;43.29;102345.66;5093627;28;20382;-80
2022/03/15 15:18:29;;;;;;;8.35;3.90;;;;;;;17.80;42.98;102349.38;5093979;28;20035;-80
2022/03/15 15:20:54;;;;;;;6.97;3.90;;;;;;;18.20;43.01;102353.56;5094140;28;20039;-80
2022/03/15 15:23:22;;;;;;;6.10;4.22;;;;;;;18.67;41.73;102356.03;5094924;28;20089;-80
2022/03/15 15:25:48;;;;;;;9.20;3.88;;;;;;;18.45;40.89;102343.00;5094150;28;20036;-80
2022/03/15 15:28:13;;;;;;;6.18;3.83;;;;;;;18.48;41.81;102353.47;5094539;28;20028;-83
2022/03/15 15:30:43;;;;;;;8.10;4.47;;;;;;;18.52;41.35;102345.94;5093798;28;20382;-80
2022/03/15 15:33:09;;;;;;;6.63;4.55;;;;;;;18.23;41.62;102350.56;5093588;28;20028;-80
2022/03/15 15:35:37;;;;;;;7.78;4.40;;;;;;;18.36;41.26;102349.31;5093627;28;20028;-82
2022/03/15 15:38:03;;;;;;;7.95;4.82;;;;;;;18.53;41.79;102350.34;5094065;28;20127;-81
2022/03/15 15:40:28;;;;;;;9.35;4.30;;;;;;;18.78;40.65;102346.84;5093806;28;20036;-82
2022/03/15 15:42:54;;;;;;;10.32;4.82;;;;;;;18.84;40.31;102340.81;5093171;28;20039;-81
2022/03/15 15:45:20;;;;;;;8.35;4.40;;;;;;;18.69;40.70;102345.09;5093984;28;20067;-82
2022/03/15 15:47:46;;;;;;;9.93;4.63;;;;;;;19.01;39.74;102340.97;5075338;28;20456;-82
2022/03/15 15:50:13;;;;;;;5.70;4.55;;;;;;;18.65;41.10;102341.00;5093355;28;20067;-82
2022/03/15 15:52:40;;;;;;;5.85;4.50;;;;;;;18.58;40.43;102340.75;5093254;28;20119;-83
2022/03/15 15:55:08;;;;;;;6.30;4.07;;;;;;;18.03;41.67;102343.59;5093611;28;20052;-82
2022/03/15 15:57:34;;;;;;;7.43;4.45;;;;;;;17.72;42.21;102350.13;5093671;28;20097;-82
2022/03/15 16:00:00;;;;;;;7.05;4.32;;;;;;;17.29;43.67;102351.59;5093264;28;20036;-80
2022/03/15 16:02:26;;;;;;;8.30;4.70;;;;;;;16.98;44.66;102349.13;5075143;28;20127;-83
2022/03/15 16:04:52;;;;;;;10.48;5.10;;;;;;;16.71;44.41;102352.53;5093142;28;20038;-82
2022/03/15 16:07:39;;;;;;;6.50;4.90;;;;;;;16.07;46.68;102356.59;5093335;28;20036;-82
2022/03/15 16:10:09;;;;;;;9.63;5.25;;;;;;;15.31;48.27;102353.31;5093501;28;20059;-81
2022/03/15 16:12:35;;;;;;;7.78;4.28;;;;;;;14.92;49.43;102357.63;5093266;28;20036;-82
2022/03/15 16:15:01;;;;;;;4.88;4.30;;;;;;;14.71;50.15;102353.09;5075114;28;20032;-81
2022/03/15 16:17:26;;;;;;;9.02;5.22;;;;;;;14.37;50.94;102355.03;5075146;28;20485;-82
2022/03/15 16:19:51;;;;;;;9.18;4.80;;;;;;;14.14;52.18;102354.22;5093170;28;20426;-83
2022/03/15 16:22:17;;;;;;;11.13;5.22;;;;;;;13.96;52.54;102351.22;5094208;28;20034;-82
2022/03/15 16:24:44;;;;;;;7.22;5.22;;;;;;;13.74;52.76;102352.97;5097025;28;20067;-83
2022/03/15 16:27:09;;;;;;;12.13;5.35;;;;;;;13.34;54.37;102354.31;5097129;28;20035;-83
2022/03/15 16:29:35;;;;;;;14.68;6.35;;;;;;;12.92;56.02;102348.63;5097297;28;20040;-83
2022/03/15 16:32:01;;;;;;;13.02;5.43;;;;;;;12.64;56.72;102357.88;5097037;28;20040;-82
2022/03/15 16:34:27;;;;;;;9.15;5.13;;;;;;;12.41;57.14;102356.94;5097165;28;20099;-80